Time;durP1;ratioP1;P1;durP2;ratioP2;P2;SDS_P1;SDS_P2;PMS_P1;PMS_P2;Temp;Humidity;BMP_temperature;BMP_pressure;BME280_temperature;BME280_humidity;BME280_pressure;Samples;Min_cycle;Max_cycle;Signal;HPM_P1;HPM_P2
2022/04/16 00:00:12;;;;;;;;;;;5.90;99.90;;;;;;2773197;31;20387;31
2022/04/16 00:02:47;;;;;;;;;;;5.90;99.90;;;;;;2603437;54;20686;31
2022/04/16 00:05:23;;;;;;;;;;;5.80;99.90;;;;;;2603469;54;20735;31
2022/04/16 00:08:10;;;;;;;;;;;5.70;99.90;;;;;;2621766;46;19990;31
2022/04/16 00:10:47;;;;;;;;;;;5.60;99.90;;;;;;2603281;54;19941;31
2022/04/16 00:13:22;;;;;;;;;;;5.60;99.90;;;;;;2615276;46;20733;31
2022/04/16 00:16:03;;;;;;;;;;;5.60;99.90;;;;;;2618077;46;20662;31
2022/04/16 00:18:44;;;;;;;;;;;5.50;99.90;;;;;;2603380;54;20005;31
2022/04/16 00:21:23;;;;;;;;;;;5.50;99.90;;;;;;2603086;54;20825;31
2022/04/16 00:24:00;;;;;;;;;;;5.40;99.90;;;;;;2621546;46;20342;31
2022/04/16 00:26:41;;;;;;;;;;;5.30;99.90;;;;;;2603144;54;19958;31
2022/04/16 00:29:16;;;;;;;;;;;5.30;99.90;;;;;;2603165;54;19951;31
2022/04/16 00:31:49;;;;;;;;;;;5.30;99.90;;;;;;2603240;54;21154;31
2022/04/16 00:34:26;;;;;;;;;;;5.30;99.90;;;;;;2603061;54;19938;31
2022/04/16 00:37:02;;;;;;;;;;;5.30;99.90;;;;;;2603231;54;20756;31
2022/04/16 00:39:38;;;;;;;;;;;5.30;99.90;;;;;;2603439;54;20825;31
2022/04/16 00:42:16;;;;;;;;;;;5.20;99.90;;;;;;2603062;54;20707;31
2022/04/16 00:44:51;;;;;;;;;;;5.20;99.90;;;;;;2621544;46;20009;31
2022/04/16 00:47:25;;;;;;;;;;;5.20;99.90;;;;;;2701792;39;21489;31
2022/04/16 00:50:00;;;;;;;;;;;5.10;99.90;;;;;;2621540;46;21048;31
2022/04/16 00:52:34;;;;;;;;;;;5.10;99.90;;;;;;2621539;46;19934;31
2022/04/16 00:55:09;;;;;;;;;;;5.10;99.90;;;;;;2609133;46;19989;31
2022/04/16 00:57:49;;;;;;;;;;;5.10;99.90;;;;;;2621666;46;19934;31
2022/04/16 01:00:24;;;;;;;;;;;5.10;99.90;;;;;;2621237;46;21443;31
2022/04/16 01:02:58;;;;;;;;;;;5.10;99.90;;;;;;2603042;54;19942;31
2022/04/16 01:05:35;;;;;;;;;;;5.10;99.90;;;;;;2603124;54;19935;31
2022/04/16 01:08:11;;;;;;;;;;;5.00;99.90;;;;;;2621857;46;19934;31
2022/04/16 01:10:46;;;;;;;;;;;5.10;99.90;;;;;;2603021;54;20688;31
2022/04/16 01:13:23;;;;;;;;;;;5.00;99.90;;;;;;2603117;54;19946;31
2022/04/16 01:16:01;;;;;;;;;;;5.00;99.90;;;;;;2603321;54;20662;31
2022/04/16 01:18:36;;;;;;;;;;;5.00;99.90;;;;;;2602903;54;19942;31
2022/04/16 01:21:12;;;;;;;;;;;5.00;99.90;;;;;;2602247;54;19943;31
2022/04/16 01:23:50;;;;;;;;;;;5.00;99.90;;;;;;2602270;54;19941;31
2022/04/16 01:26:29;;;;;;;;;;;5.00;99.90;;;;;;2602906;54;19942;31
2022/04/16 01:29:05;;;;;;;;;;;5.00;99.90;;;;;;2603212;54;20653;31
2022/04/16 01:31:39;;;;;;;;;;;5.00;99.90;;;;;;2621424;46;19935;31
2022/04/16 01:34:14;;;;;;;;;;;5.00;99.90;;;;;;2602193;54;20017;31
2022/04/16 01:36:49;;;;;;;;;;;5.00;99.90;;;;;;2602711;54;20544;31
2022/04/16 01:39:24;;;;;;;;;;;5.00;99.90;;;;;;2621755;46;19934;31
2022/04/16 01:42:03;;;;;;;;;;;5.00;99.90;;;;;;2621568;46;19945;31
2022/04/16 01:44:38;;;;;;;;;;;5.00;99.90;;;;;;2603122;54;19961;31
2022/04/16 01:47:16;;;;;;;;;;;5.00;99.90;;;;;;2621806;46;19934;31
2022/04/16 01:49:51;;;;;;;;;;;5.00;99.90;;;;;;2621682;46;19934;31
2022/04/16 01:52:29;;;;;;;;;;;4.90;99.90;;;;;;2621696;46;19934;31
2022/04/16 01:55:05;;;;;;;;;;;4.90;99.90;;;;;;2603080;54;19935;31
2022/04/16 01:57:43;;;;;;;;;;;4.90;99.90;;;;;;2621372;46;20695;31
2022/04/16 02:00:19;;;;;;;;;;;4.80;99.90;;;;;;2621202;46;20672;31
2022/04/16 02:02:57;;;;;;;;;;;4.80;99.90;;;;;;2602995;54;20661;31
2022/04/16 02:05:31;;;;;;;;;;;4.70;99.90;;;;;;2603089;54;20733;31
2022/04/16 02:08:08;;;;;;;;;;;4.70;99.90;;;;;;2602758;54;19941;31
2022/04/16 02:10:44;;;;;;;;;;;4.70;99.90;;;;;;2621273;46;19934;31
2022/04/16 02:13:22;;;;;;;;;;;4.70;99.90;;;;;;2602962;54;20834;31
2022/04/16 02:16:00;;;;;;;;;;;4.70;99.90;;;;;;2621198;46;20791;31
2022/04/16 02:18:36;;;;;;;;;;;4.70;99.90;;;;;;2602844;54;20811;31
2022/04/16 02:21:12;;;;;;;;;;;4.60;99.90;;;;;;2602991;54;19941;31
2022/04/16 02:23:45;;;;;;;;;;;4.60;99.90;;;;;;2602893;54;21032;31
2022/04/16 02:26:22;;;;;;;;;;;4.60;99.90;;;;;;2602665;54;19935;31
2022/04/16 02:28:58;;;;;;;;;;;4.60;99.90;;;;;;2602777;54;20001;31
2022/04/16 02:31:37;;;;;;;;;;;4.50;99.90;;;;;;2602986;54;21220;31
2022/04/16 02:34:13;;;;;;;;;;;4.50;99.90;;;;;;2602933;54;19941;31
2022/04/16 02:36:53;;;;;;;;;;;4.50;99.90;;;;;;2602011;54;20021;31
2022/04/16 02:39:31;;;;;;;;;;;4.40;99.90;;;;;;2601548;54;19954;31
2022/04/16 02:42:09;;;;;;;;;;;4.40;99.90;;;;;;2601993;54;20001;31
2022/04/16 02:47:35;;;;;;;;;;;4.30;99.90;;;;;;2621673;47;19935;31
2022/04/16 02:50:12;;;;;;;;;;;4.30;99.90;;;;;;2603780;54;19935;31
2022/04/16 02:52:46;;;;;;;;;;;4.30;99.90;;;;;;2622119;46;19958;31
2022/04/16 02:55:22;;;;;;;;;;;4.20;99.90;;;;;;2621971;46;19935;31
2022/04/16 02:57:58;;;;;;;;;;;4.20;99.90;;;;;;2603486;54;19935;31
2022/04/16 03:00:34;;;;;;;;;;;4.20;99.90;;;;;;2621853;46;19934;31
2022/04/16 03:03:14;;;;;;;;;;;4.20;99.90;;;;;;2603542;54;20756;31
2022/04/16 03:05:46;;;;;;;;;;;4.20;99.90;;;;;;2622007;46;22302;31
2022/04/16 03:08:24;;;;;;;;;;;4.10;99.90;;;;;;2622058;46;19935;31
2022/04/16 03:10:59;;;;;;;;;;;4.10;99.90;;;;;;2603580;54;20757;31
2022/04/16 03:13:35;;;;;;;;;;;4.10;99.90;;;;;;2603445;54;20749;31
2022/04/16 03:19:12;;;;;;;;;;;4.10;99.90;;;;;;2621520;46;20694;31
2022/04/16 03:21:47;;;;;;;;;;;4.10;99.90;;;;;;2603133;54;20830;31
2022/04/16 03:24:21;;;;;;;;;;;4.10;99.90;;;;;;2702017;39;20411;31
2022/04/16 03:26:56;;;;;;;;;;;4.10;99.90;;;;;;2603508;54;19935;31
2022/04/16 03:29:32;;;;;;;;;;;4.10;99.90;;;;;;2603209;54;19941;31
2022/04/16 03:32:08;;;;;;;;;;;4.00;99.90;;;;;;2621889;46;19935;31
2022/04/16 03:34:44;;;;;;;;;;;4.00;99.90;;;;;;2603462;54;19942;31
2022/04/16 03:37:24;;;;;;;;;;;4.00;99.90;;;;;;2603463;54;19947;31
2022/04/16 03:39:59;;;;;;;;;;;3.90;99.90;;;;;;2602486;54;20734;31
2022/04/16 03:42:34;;;;;;;;;;;3.90;99.90;;;;;;2602527;54;20701;31
2022/04/16 03:45:18;;;;;;;;;;;3.90;99.90;;;;;;2603412;54;20784;31
2022/04/16 03:47:58;;;;;;;;;;;3.90;99.90;;;;;;2621795;46;19934;31
2022/04/16 03:50:34;;;;;;;;;;;3.80;99.90;;;;;;2603320;54;19935;31
2022/04/16 03:53:13;;;;;;;;;;;3.80;99.90;;;;;;2621587;46;20798;31
2022/04/16 04:01:21;;;;;;;;;;;3.80;99.90;;;;;;2603311;54;19935;31
2022/04/16 04:03:57;;;;;;;;;;;3.80;99.90;;;;;;2602487;54;19954;31
2022/04/16 04:06:33;;;;;;;;;;;3.80;99.90;;;;;;2701329;39;22124;31
2022/04/16 04:09:11;;;;;;;;;;;3.70;99.90;;;;;;2621310;46;19954;31
2022/04/16 04:11:50;;;;;;;;;;;3.70;99.90;;;;;;2603147;54;19942;31
2022/04/16 04:14:25;;;;;;;;;;;3.70;99.90;;;;;;2603330;54;20067;31
2022/04/16 04:17:00;;;;;;;;;;;3.70;99.90;;;;;;2621985;46;20025;31
2022/04/16 04:19:34;;;;;;;;;;;3.80;99.90;;;;;;2602420;54;19943;31
2022/04/16 04:22:09;;;;;;;;;;;3.80;99.90;;;;;;2602633;54;20792;31
2022/04/16 04:24:46;;;;;;;;;;;3.70;99.90;;;;;;2603178;54;19934;31
2022/04/16 04:27:24;;;;;;;;;;;3.80;99.90;;;;;;2603404;54;20025;31
2022/04/16 04:30:01;;;;;;;;;;;3.70;99.90;;;;;;2621385;46;20679;31
2022/04/16 04:32:36;;;;;;;;;;;3.70;99.90;;;;;;2622007;46;20775;31
2022/04/16 04:35:11;;;;;;;;;;;3.70;99.90;;;;;;2603069;54;20672;31
2022/04/16 04:37:49;;;;;;;;;;;3.70;99.90;;;;;;2621788;46;19934;31
2022/04/16 04:40:25;;;;;;;;;;;4.30;99.90;;;;;;2603090;54;19978;31
2022/04/16 04:43:04;;;;;;;;;;;3.70;99.90;;;;;;2603321;54;19935;31
2022/04/16 04:45:40;;;;;;;;;;;3.70;99.90;;;;;;2621946;46;20770;31
2022/04/16 04:48:15;;;;;;;;;;;3.70;99.90;;;;;;2603224;54;19941;31
2022/04/16 04:50:50;;;;;;;;;;;3.70;99.90;;;;;;2603436;54;20847;31
2022/04/16 04:53:28;;;;;;;;;;;3.70;99.90;;;;;;2603137;54;21091;31
2022/04/16 04:56:05;;;;;;;;;;;3.70;99.90;;;;;;2603272;54;20795;31
2022/04/16 04:58:48;;;;;;;;;;;3.80;99.90;;;;;;2603082;54;19934;31
2022/04/16 05:01:23;;;;;;;;;;;3.80;99.90;;;;;;2603086;54;20799;31
2022/04/16 05:03:59;;;;;;;;;;;3.70;99.90;;;;;;2621647;46;19934;31
2022/04/16 05:06:35;;;;;;;;;;;3.70;99.90;;;;;;2602934;54;19942;31
2022/04/16 05:09:12;;;;;;;;;;;3.70;99.90;;;;;;2620470;46;20837;31
2022/04/16 05:11:53;;;;;;;;;;;3.70;99.90;;;;;;2620710;47;19931;31
2022/04/16 05:14:30;;;;;;;;;;;3.70;99.90;;;;;;2719743;39;21433;31
2022/04/16 05:17:05;;;;;;;;;;;3.70;99.90;;;;;;2603060;54;19991;31
2022/04/16 05:19:40;;;;;;;;;;;3.70;99.90;;;;;;2603140;54;19994;31
2022/04/16 05:22:15;;;;;;;;;;;3.70;99.90;;;;;;2621791;46;20756;31
2022/04/16 05:24:50;;;;;;;;;;;3.70;99.90;;;;;;2607310;46;20017;31
2022/04/16 05:27:25;;;;;;;;;;;3.80;99.90;;;;;;2621505;46;20755;31
2022/04/16 05:30:13;;;;;;;;;;;3.80;99.90;;;;;;2621555;46;20774;31
2022/04/16 05:32:50;;;;;;;;;;;3.80;99.90;;;;;;2602903;54;19934;31
2022/04/16 05:35:24;;;;;;;;;;;3.70;99.90;;;;;;2603107;54;20013;31
2022/04/16 05:38:03;;;;;;;;;;;3.80;99.90;;;;;;2603119;54;20780;31
2022/04/16 05:40:37;;;;;;;;;;;3.80;99.90;;;;;;2603013;54;19946;31
2022/04/16 05:43:15;;;;;;;;;;;3.80;99.90;;;;;;2621766;46;19935;31
2022/04/16 05:45:54;;;;;;;;;;;3.80;99.90;;;;;;2603094;54;20011;31
2022/04/16 05:48:29;;;;;;;;;;;3.80;99.90;;;;;;2621100;46;20694;31
2022/04/16 05:51:05;;;;;;;;;;;3.80;99.90;;;;;;2603166;54;20864;31
2022/04/16 05:53:39;;;;;;;;;;;3.80;99.90;;;;;;2621643;46;19934;31
2022/04/16 05:56:16;;;;;;;;;;;3.80;99.90;;;;;;2606656;46;20635;31
2022/04/16 05:58:51;;;;;;;;;;;3.90;99.90;;;;;;2603089;54;19934;31
2022/04/16 06:01:30;;;;;;;;;;;3.90;99.90;;;;;;2602576;54;19935;31
2022/04/16 06:04:04;;;;;;;;;;;3.90;99.90;;;;;;2602536;54;19934;31
2022/04/16 06:06:39;;;;;;;;;;;3.90;99.90;;;;;;2602841;54;19961;31
2022/04/16 06:09:15;;;;;;;;;;;3.80;99.90;;;;;;2602774;54;20754;31
2022/04/16 06:11:52;;;;;;;;;;;3.80;99.90;;;;;;2618728;46;19935;31
2022/04/16 06:14:27;;;;;;;;;;;3.80;99.90;;;;;;2621625;46;19935;31
2022/04/16 06:17:21;;;;;;;;;;;3.80;99.90;;;;;;2621248;46;19941;31
2022/04/16 06:19:58;;;;;;;;;;;3.80;99.90;;;;;;2620841;46;19985;31
2022/04/16 06:22:33;;;;;;;;;;;3.90;99.90;;;;;;2621088;46;19941;31
2022/04/16 06:25:08;;;;;;;;;;;3.90;99.90;;;;;;2602184;54;20767;31
2022/04/16 06:27:44;;;;;;;;;;;4.10;99.90;;;;;;2602604;54;19994;31
2022/04/16 06:30:19;;;;;;;;;;;4.20;99.90;;;;;;2602356;54;19931;31
2022/04/16 06:32:57;;;;;;;;;;;4.30;99.90;;;;;;2602806;54;19939;31
2022/04/16 06:35:32;;;;;;;;;;;4.30;99.90;;;;;;2621559;47;20025;31
2022/04/16 06:38:09;;;;;;;;;;;4.30;99.90;;;;;;2602903;54;20752;31
2022/04/16 06:40:43;;;;;;;;;;;4.20;99.90;;;;;;2602880;54;19935;31
2022/04/16 06:43:18;;;;;;;;;;;4.30;99.90;;;;;;2621085;47;19943;31
2022/04/16 06:45:58;;;;;;;;;;;4.30;99.90;;;;;;2602658;54;20690;31
2022/04/16 06:48:35;;;;;;;;;;;4.30;99.90;;;;;;2602713;54;20017;31
2022/04/16 06:51:10;;;;;;;;;;;4.40;99.90;;;;;;2621434;47;19945;31
2022/04/16 06:53:45;;;;;;;;;;;4.60;99.90;;;;;;2602405;54;20744;31
2022/04/16 06:56:20;;;;;;;;;;;4.60;99.90;;;;;;2602641;54;19974;31
2022/04/16 06:59:03;;;;;;;;;;;4.70;99.90;;;;;;2602785;54;19938;31
2022/04/16 07:01:40;;;;;;;;;;;4.80;99.90;;;;;;2621080;47;20790;31
2022/04/16 07:04:19;;;;;;;;;;;4.90;99.90;;;;;;2602521;54;19934;31
2022/04/16 07:06:59;;;;;;;;;;;4.90;99.90;;;;;;2621007;47;19934;31
2022/04/16 07:09:38;;;;;;;;;;;5.00;99.90;;;;;;2602879;54;20763;31
2022/04/16 07:12:15;;;;;;;;;;;4.90;99.90;;;;;;2621087;47;19942;31
2022/04/16 07:14:50;;;;;;;;;;;4.90;99.90;;;;;;2620452;47;19994;31
2022/04/16 07:17:27;;;;;;;;;;;4.90;99.90;;;;;;2621139;47;20832;31
2022/04/16 07:20:14;;;;;;;;;;;5.00;99.90;;;;;;2621169;47;19935;31
2022/04/16 07:22:49;;;;;;;;;;;5.10;99.90;;;;;;2602861;54;20733;31
2022/04/16 07:25:22;;;;;;;;;;;5.20;99.90;;;;;;2602544;54;19958;31
2022/04/16 07:27:58;;;;;;;;;;;5.20;99.90;;;;;;2601765;54;20682;31
2022/04/16 07:30:33;;;;;;;;;;;5.30;99.90;;;;;;2621352;47;19935;31
2022/04/16 07:33:08;;;;;;;;;;;5.30;99.90;;;;;;2602799;54;21174;31
2022/04/16 07:35:45;;;;;;;;;;;5.30;99.90;;;;;;2621710;47;20728;31
2022/04/16 07:38:24;;;;;;;;;;;5.40;99.90;;;;;;2602890;54;19956;31
2022/04/16 07:41:02;;;;;;;;;;;5.40;99.90;;;;;;2602455;54;19942;31
2022/04/16 07:43:40;;;;;;;;;;;5.60;99.90;;;;;;2602766;54;20658;31
2022/04/16 07:46:18;;;;;;;;;;;5.70;99.90;;;;;;2701011;39;21507;31
2022/04/16 07:48:57;;;;;;;;;;;5.80;99.90;;;;;;2701063;39;21471;31
2022/04/16 07:51:31;;;;;;;;;;;5.90;99.90;;;;;;2622127;46;20713;31
2022/04/16 07:54:09;;;;;;;;;;;6.10;99.90;;;;;;2621360;46;19935;31
2022/04/16 07:56:45;;;;;;;;;;;6.40;99.90;;;;;;2602627;54;19935;31
2022/04/16 07:59:20;;;;;;;;;;;6.60;99.90;;;;;;2620309;46;20521;31
2022/04/16 08:01:56;;;;;;;;;;;6.70;99.90;;;;;;2603312;54;19935;31
2022/04/16 08:04:31;;;;;;;;;;;6.80;99.90;;;;;;2602599;54;19942;31
2022/04/16 08:07:06;;;;;;;;;;;6.80;99.90;;;;;;2603211;54;20716;31
2022/04/16 08:09:43;;;;;;;;;;;6.90;99.90;;;;;;2602674;54;19938;31
2022/04/16 08:12:21;;;;;;;;;;;7.30;99.90;;;;;;2603166;54;20666;31
2022/04/16 08:14:56;;;;;;;;;;;7.50;99.90;;;;;;2603143;54;21461;31
2022/04/16 08:17:31;;;;;;;;;;;7.60;99.90;;;;;;2603294;54;20756;31
2022/04/16 08:20:06;;;;;;;;;;;7.90;99.90;;;;;;2620359;46;19935;31
2022/04/16 08:22:46;;;;;;;;;;;7.90;99.90;;;;;;2602948;54;20776;31
2022/04/16 08:28:12;;;;;;;;;;;7.70;99.90;;;;;;2603289;54;19934;31
2022/04/16 08:30:46;;;;;;;;;;;8.10;99.90;;;;;;2621859;46;19935;31
2022/04/16 08:33:22;;;;;;;;;;;8.50;99.90;;;;;;2621795;46;20793;31
2022/04/16 08:35:59;;;;;;;;;;;8.80;99.90;;;;;;2603011;54;19962;31
2022/04/16 08:38:34;;;;;;;;;;;9.20;99.90;;;;;;2602193;54;20684;31
2022/04/16 08:41:11;;;;;;;;;;;9.50;99.90;;;;;;2602979;54;19962;31
2022/04/16 08:43:48;;;;;;;;;;;9.50;99.90;;;;;;2603126;54;21779;31
2022/04/16 08:46:25;;;;;;;;;;;9.50;99.90;;;;;;2602254;54;20563;31
2022/04/16 08:49:00;;;;;;;;;;;9.20;99.90;;;;;;2602315;54;20726;31
2022/04/16 08:51:35;;;;;;;;;;;9.10;99.90;;;;;;2603157;54;20750;31
2022/04/16 08:54:09;;;;;;;;;;;9.40;99.90;;;;;;2602210;54;19935;31
2022/04/16 08:56:44;;;;;;;;;;;9.70;99.90;;;;;;2605514;46;21181;31
2022/04/16 08:59:19;;;;;;;;;;;10.10;99.90;;;;;;2602663;54;19993;31
2022/04/16 09:01:56;;;;;;;;;;;10.50;99.90;;;;;;2602830;54;19935;31
2022/04/16 09:04:34;;;;;;;;;;;10.60;99.90;;;;;;2602262;54;19946;31
2022/04/16 09:07:09;;;;;;;;;;;10.70;99.90;;;;;;2613173;46;20017;31
2022/04/16 09:09:43;;;;;;;;;;;10.50;99.90;;;;;;2620907;46;19949;31
2022/04/16 09:12:20;;;;;;;;;;;10.40;99.90;;;;;;2602251;54;20759;31
2022/04/16 09:14:55;;;;;;;;;;;10.20;99.90;;;;;;2621423;46;20756;31
2022/04/16 09:17:31;;;;;;;;;;;10.40;99.90;;;;;;2621495;46;19934;31
2022/04/16 09:20:11;;;;;;;;;;;10.80;99.90;;;;;;2602186;54;19942;31
2022/04/16 09:22:49;;;;;;;;;;;10.80;99.90;;;;;;2602747;54;19934;31
2022/04/16 09:25:31;;;;;;;;;;;10.60;99.90;;;;;;2611889;46;19981;31
2022/04/16 09:28:07;;;;;;;;;;;10.40;99.90;;;;;;2602027;54;20062;31
2022/04/16 09:30:44;;;;;;;;;;;10.40;99.90;;;;;;2602195;54;20812;31
2022/04/16 09:33:19;;;;;;;;;;;10.40;99.90;;;;;;2602812;54;19935;31
2022/04/16 09:35:58;;;;;;;;;;;10.30;99.90;;;;;;2602701;54;20761;31
2022/04/16 09:38:37;;;;;;;;;;;10.30;99.90;;;;;;2605686;46;20831;31
2022/04/16 09:41:12;;;;;;;;;;;10.50;99.90;;;;;;2614490;46;19958;31
2022/04/16 09:43:49;;;;;;;;;;;10.40;99.90;;;;;;2602083;54;19942;31
2022/04/16 09:46:22;;;;;;;;;;;10.70;99.90;;;;;;2621391;46;19942;31
2022/04/16 09:48:58;;;;;;;;;;;10.70;99.90;;;;;;2602322;54;20702;31
2022/04/16 09:51:48;;;;;;;;;;;10.60;99.90;;;;;;2603062;54;20769;31
2022/04/16 09:54:25;;;;;;;;;;;10.90;99.90;;;;;;2603081;54;20782;31
2022/04/16 09:57:02;;;;;;;;;;;11.20;99.90;;;;;;2620934;46;19934;31
2022/04/16 09:59:38;;;;;;;;;;;11.00;99.90;;;;;;2602909;54;19934;31
2022/04/16 10:02:17;;;;;;;;;;;10.90;99.90;;;;;;2602788;54;20774;31
2022/04/16 10:04:53;;;;;;;;;;;10.80;99.90;;;;;;2602234;54;20778;31
2022/04/16 10:07:30;;;;;;;;;;;11.00;99.90;;;;;;2602228;54;19939;31
2022/04/16 10:10:17;;;;;;;;;;;11.20;99.90;;;;;;2601815;54;20764;31
2022/04/16 10:13:04;;;;;;;;;;;11.40;99.90;;;;;;2602881;54;19934;31
2022/04/16 10:15:42;;;;;;;;;;;11.60;99.90;;;;;;2602545;54;19942;31
2022/04/16 10:18:16;;;;;;;;;;;11.90;99.90;;;;;;2621279;46;20013;31
2022/04/16 10:20:54;;;;;;;;;;;11.90;99.90;;;;;;2621366;46;20753;31
2022/04/16 10:23:30;;;;;;;;;;;11.80;99.90;;;;;;2602734;54;20787;31
2022/04/16 10:26:09;;;;;;;;;;;11.50;99.90;;;;;;2617494;46;20777;31
2022/04/16 10:28:46;;;;;;;;;;;11.50;99.90;;;;;;2602679;54;19938;31
2022/04/16 10:34:10;;;;;;;;;;;12.10;99.90;;;;;;2620770;47;19942;31
2022/04/16 10:36:44;;;;;;;;;;;12.10;99.90;;;;;;2602635;54;20678;31
2022/04/16 10:39:18;;;;;;;;;;;11.90;99.90;;;;;;2602489;54;19941;31
2022/04/16 10:41:55;;;;;;;;;;;11.90;99.90;;;;;;2621158;47;19956;31
2022/04/16 10:44:32;;;;;;;;;;;11.70;99.90;;;;;;2602569;54;20672;31
2022/04/16 10:47:06;;;;;;;;;;;11.60;99.90;;;;;;2602472;54;19935;31
2022/04/16 10:49:42;;;;;;;;;;;11.70;99.90;;;;;;2621173;47;19935;31
2022/04/16 10:52:21;;;;;;;;;;;11.80;99.90;;;;;;2602606;54;19935;31
2022/04/16 10:55:02;;;;;;;;;;;11.80;99.90;;;;;;2621189;47;20654;31
2022/04/16 10:57:36;;;;;;;;;;;11.90;99.90;;;;;;2602426;54;19935;31
2022/04/16 11:00:18;;;;;;;;;;;12.10;99.90;;;;;;2602758;54;19934;31
2022/04/16 11:03:10;;;;;;;;;;;12.20;99.90;;;;;;2621205;47;19942;31
2022/04/16 11:05:44;;;;;;;;;;;12.20;99.90;;;;;;2618143;47;19942;31
2022/04/16 11:08:19;;;;;;;;;;;12.30;99.70;;;;;;2603072;54;19960;31
2022/04/16 11:10:57;;;;;;;;;;;12.10;99.90;;;;;;2621921;46;19990;31
2022/04/16 11:13:38;;;;;;;;;;;11.80;99.90;;;;;;2603440;54;19934;31
2022/04/16 11:16:14;;;;;;;;;;;11.70;99.90;;;;;;2622093;46;19935;31
2022/04/16 11:18:49;;;;;;;;;;;11.50;99.10;;;;;;2603374;54;20665;31
2022/04/16 11:21:29;;;;;;;;;;;11.30;98.80;;;;;;2603290;54;20734;31
2022/04/16 11:24:06;;;;;;;;;;;11.30;99.90;;;;;;2603344;54;20783;31
2022/04/16 11:35:06;;;;;;;;;;;11.90;97.20;;;;;;2603138;54;20014;31
2022/04/16 11:37:40;;;;;;;;;;;12.00;97.90;;;;;;2621588;46;19935;31
2022/04/16 11:40:15;;;;;;;;;;;12.00;99.90;;;;;;2603455;54;19934;31
2022/04/16 11:42:48;;;;;;;;;;;11.90;99.90;;;;;;2603346;54;20774;31
2022/04/16 11:45:22;;;;;;;;;;;11.80;99.90;;;;;;2621802;46;19939;31
2022/04/16 11:47:56;;;;;;;;;;;11.80;99.40;;;;;;2720641;39;22374;31
2022/04/16 11:50:30;;;;;;;;;;;11.60;98.40;;;;;;2603603;54;19957;31
2022/04/16 11:53:05;;;;;;;;;;;11.40;99.30;;;;;;2621519;46;22380;31
2022/04/16 11:55:46;;;;;;;;;;;11.50;99.90;;;;;;2621985;46;20700;31
2022/04/16 11:58:20;;;;;;;;;;;11.50;99.90;;;;;;2603389;54;20024;31
2022/04/16 12:00:55;;;;;;;;;;;11.20;98.10;;;;;;2603414;54;19961;31
2022/04/16 12:03:40;;;;;;;;;;;11.10;98.00;;;;;;2603176;54;19942;31
2022/04/16 12:06:14;;;;;;;;;;;11.10;96.80;;;;;;2621701;46;19989;31
2022/04/16 12:08:49;;;;;;;;;;;11.20;98.50;;;;;;2603155;54;19990;31
2022/04/16 12:11:23;;;;;;;;;;;11.10;97.00;;;;;;2603154;54;20738;31
2022/04/16 12:13:59;;;;;;;;;;;11.10;97.80;;;;;;2603285;54;19935;31
2022/04/16 12:16:38;;;;;;;;;;;11.10;98.40;;;;;;2603077;54;19935;31
2022/04/16 12:19:13;;;;;;;;;;;11.10;97.80;;;;;;2603000;54;20784;31
2022/04/16 12:21:47;;;;;;;;;;;11.20;97.80;;;;;;2603125;54;20669;31
2022/04/16 12:24:27;;;;;;;;;;;11.20;98.50;;;;;;2603257;54;19960;31
2022/04/16 12:27:01;;;;;;;;;;;11.20;99.90;;;;;;2603198;54;20666;31
2022/04/16 12:29:35;;;;;;;;;;;11.00;96.90;;;;;;2621391;46;20776;31
2022/04/16 12:32:10;;;;;;;;;;;10.80;98.30;;;;;;2621706;46;20068;31
2022/04/16 12:34:45;;;;;;;;;;;10.70;99.00;;;;;;2602974;54;19934;31
2022/04/16 12:37:18;;;;;;;;;;;10.80;99.90;;;;;;2603076;54;20891;31
2022/04/16 12:39:51;;;;;;;;;;;10.90;99.90;;;;;;2603211;54;19935;31
2022/04/16 12:42:26;;;;;;;;;;;10.90;99.90;;;;;;2602952;54;20768;31
2022/04/16 12:45:00;;;;;;;;;;;10.90;99.90;;;;;;2602832;54;20759;31
2022/04/16 12:47:34;;;;;;;;;;;10.90;99.90;;;;;;2621288;46;19934;31
2022/04/16 12:50:12;;;;;;;;;;;10.90;99.90;;;;;;2602995;54;19934;31
2022/04/16 12:52:47;;;;;;;;;;;10.90;99.90;;;;;;2602840;54;20781;31
2022/04/16 12:55:22;;;;;;;;;;;11.00;99.00;;;;;;2603001;54;19935;31
2022/04/16 12:57:56;;;;;;;;;;;11.00;98.20;;;;;;2603092;54;19939;31
2022/04/16 13:00:31;;;;;;;;;;;11.00;97.80;;;;;;2621201;46;19934;31
2022/04/16 13:03:07;;;;;;;;;;;11.10;98.80;;;;;;2602943;54;19986;31
2022/04/16 13:05:48;;;;;;;;;;;11.10;99.70;;;;;;2603037;54;20840;31
2022/04/16 13:08:24;;;;;;;;;;;11.30;99.50;;;;;;2621397;46;19934;31
2022/04/16 13:10:58;;;;;;;;;;;11.30;97.80;;;;;;2602956;54;19941;31
2022/04/16 13:13:35;;;;;;;;;;;11.20;97.30;;;;;;2602909;54;19965;31
2022/04/16 13:16:12;;;;;;;;;;;11.10;97.60;;;;;;2602913;54;20777;31
2022/04/16 13:18:48;;;;;;;;;;;11.20;98.40;;;;;;2602782;54;19939;31
2022/04/16 13:21:26;;;;;;;;;;;11.30;97.40;;;;;;2621150;46;21267;31
2022/04/16 13:24:02;;;;;;;;;;;11.40;98.50;;;;;;2621227;46;19935;31
2022/04/16 13:26:34;;;;;;;;;;;11.40;98.80;;;;;;2621652;46;20752;31
2022/04/16 13:29:09;;;;;;;;;;;11.40;99.90;;;;;;2602915;54;20657;31
2022/04/16 13:31:43;;;;;;;;;;;11.40;99.90;;;;;;2621437;46;19935;31
2022/04/16 13:34:18;;;;;;;;;;;11.30;99.90;;;;;;2602988;54;19934;31
2022/04/16 13:36:56;;;;;;;;;;;11.30;99.20;;;;;;2621386;46;20761;31
2022/04/16 13:42:21;;;;;;;;;;;11.20;99.60;;;;;;2602967;54;20783;31
2022/04/16 13:44:54;;;;;;;;;;;11.20;98.20;;;;;;2614802;46;20742;31
2022/04/16 13:47:29;;;;;;;;;;;11.20;98.20;;;;;;2621646;46;20863;31
2022/04/16 13:50:04;;;;;;;;;;;11.20;98.00;;;;;;2621511;46;20777;31
2022/04/16 13:52:43;;;;;;;;;;;11.50;99.90;;;;;;2603065;54;19990;31
2022/04/16 13:55:15;;;;;;;;;;;11.60;99.00;;;;;;2621293;46;22274;31
2022/04/16 13:57:48;;;;;;;;;;;11.60;97.60;;;;;;2603043;54;20775;31
2022/04/16 14:00:22;;;;;;;;;;;11.40;97.10;;;;;;2621581;46;19939;31
2022/04/16 14:02:55;;;;;;;;;;;11.20;98.20;;;;;;2602623;54;19935;31
2022/04/16 14:08:20;;;;;;;;;;;11.10;98.40;;;;;;2602972;54;20677;31
2022/04/16 14:10:55;;;;;;;;;;;11.10;96.70;;;;;;2602853;54;19935;31
2022/04/16 14:13:32;;;;;;;;;;;11.10;97.70;;;;;;2602702;54;20834;31
2022/04/16 14:16:09;;;;;;;;;;;11.10;98.70;;;;;;2602815;54;20643;31
2022/04/16 14:18:45;;;;;;;;;;;11.10;97.50;;;;;;2602884;54;20741;31
2022/04/16 14:21:20;;;;;;;;;;;11.00;99.00;;;;;;2602659;54;20673;31
2022/04/16 14:23:58;;;;;;;;;;;10.90;98.90;;;;;;2602711;54;19977;31
2022/04/16 14:26:32;;;;;;;;;;;10.80;98.40;;;;;;2621157;46;19935;31
2022/04/16 14:29:07;;;;;;;;;;;10.90;99.90;;;;;;2602720;54;19942;31
2022/04/16 14:31:40;;;;;;;;;;;10.90;98.50;;;;;;2602906;54;19935;31
2022/04/16 14:34:14;;;;;;;;;;;11.00;97.80;;;;;;2620987;47;19943;31
2022/04/16 14:36:49;;;;;;;;;;;11.00;96.20;;;;;;2620933;47;20753;31
2022/04/16 14:39:26;;;;;;;;;;;11.10;96.40;;;;;;2620983;47;19989;31
2022/04/16 14:42:00;;;;;;;;;;;11.10;96.20;;;;;;2602591;54;20773;31
2022/04/16 14:44:34;;;;;;;;;;;11.00;97.40;;;;;;2603473;54;19935;31
2022/04/16 14:47:10;;;;;;;;;;;10.90;97.80;;;;;;2603260;54;19993;31
2022/04/16 14:49:47;;;;;;;;;;;11.00;99.70;;;;;;2602673;54;19934;31
2022/04/16 14:52:28;;;;;;;;;;;10.90;98.70;;;;;;2603312;54;20767;31
2022/04/16 14:55:07;;;;;;;;;;;11.00;97.20;;;;;;2602617;54;20732;31
2022/04/16 14:57:52;;;;;;;;;;;11.00;95.90;;;;;;2602435;54;19985;31
2022/04/16 15:00:26;;;;;;;;;;;11.00;97.10;;;;;;2619290;46;19943;31
2022/04/16 15:03:00;;;;;;;;;;;10.50;95.90;;;;;;2603511;54;19941;31
2022/04/16 15:05:36;;;;;;;;;;;10.90;97.40;;;;;;2603125;54;20812;31
2022/04/16 15:08:11;;;;;;;;;;;10.90;97.90;;;;;;2622033;46;20785;31
2022/04/16 15:10:46;;;;;;;;;;;10.90;99.50;;;;;;2602372;54;20556;31
2022/04/16 15:13:23;;;;;;;;;;;10.80;97.70;;;;;;2621732;46;19962;31
2022/04/16 15:15:57;;;;;;;;;;;10.80;97.50;;;;;;2622018;46;19934;31
2022/04/16 15:18:33;;;;;;;;;;;10.70;97.70;;;;;;2603237;54;19935;31
2022/04/16 15:21:14;;;;;;;;;;;10.70;98.40;;;;;;2621973;46;20762;31
2022/04/16 15:23:47;;;;;;;;;;;10.60;97.60;;;;;;2603229;54;19935;31
2022/04/16 15:26:24;;;;;;;;;;;10.60;98.90;;;;;;2603052;54;20635;31
2022/04/16 15:29:01;;;;;;;;;;;10.70;98.00;;;;;;2621934;46;20776;31
2022/04/16 15:31:41;;;;;;;;;;;10.70;98.40;;;;;;2603169;54;19934;31
2022/04/16 15:34:21;;;;;;;;;;;10.70;98.20;;;;;;2621499;46;19935;31
2022/04/16 15:36:57;;;;;;;;;;;10.70;97.60;;;;;;2603337;54;19981;31
2022/04/16 15:39:33;;;;;;;;;;;10.60;96.00;;;;;;2621955;46;20673;31
2022/04/16 15:42:08;;;;;;;;;;;10.50;96.20;;;;;;2621980;46;20001;31
2022/04/16 15:44:44;;;;;;;;;;;10.40;97.20;;;;;;2621422;46;20710;31
2022/04/16 15:47:19;;;;;;;;;;;10.40;97.40;;;;;;2621697;46;20519;31
2022/04/16 15:49:53;;;;;;;;;;;10.30;99.00;;;;;;2603043;54;20751;31
2022/04/16 15:52:28;;;;;;;;;;;10.30;99.10;;;;;;2621801;46;19952;31
2022/04/16 15:55:03;;;;;;;;;;;10.40;99.90;;;;;;2602757;54;20762;31
2022/04/16 15:57:37;;;;;;;;;;;10.40;99.90;;;;;;2621805;46;20748;31
2022/04/16 16:00:15;;;;;;;;;;;10.50;99.60;;;;;;2720426;39;21441;31
2022/04/16 16:02:49;;;;;;;;;;;10.50;97.50;;;;;;2603252;54;19934;31